sensor_id;sensor_type;location;lat;lon;timestamp;P1;durP1;ratioP1;P2;durP2;ratioP2
5929;SDS011;2990;48.746;9.236;2022-08-16T00:00:47;587.05;;;549.10;;
5929;SDS011;2990;48.746;9.236;2022-08-16T00:03:13;600.45;;;561.88;;
5929;SDS011;2990;48.746;9.236;2022-08-16T00:05:39;556.80;;;521.55;;
5929;SDS011;2990;48.746;9.236;2022-08-16T00:08:04;579.33;;;542.30;;
5929;SDS011;2990;48.746;9.236;2022-08-16T00:10:30;578.88;;;541.83;;
5929;SDS011;2990;48.746;9.236;2022-08-16T00:13:00;644.63;;;602.15;;
5929;SDS011;2990;48.746;9.236;2022-08-16T00:15:34;596.22;;;557.83;;
5929;SDS011;2990;48.746;9.236;2022-08-16T00:18:04;578.15;;;541.17;;
5929;SDS011;2990;48.746;9.236;2022-08-16T00:20:30;589.47;;;551.55;;
5929;SDS011;2990;48.746;9.236;2022-08-16T00:22:57;618.20;;;578.20;;
5929;SDS011;2990;48.746;9.236;2022-08-16T00:25:23;607.28;;;568.10;;
5929;SDS011;2990;48.746;9.236;2022-08-16T00:27:50;610.70;;;570.97;;
5929;SDS011;2990;48.746;9.236;2022-08-16T00:30:16;602.42;;;563.42;;
5929;SDS011;2990;48.746;9.236;2022-08-16T00:32:44;614.88;;;574.70;;
5929;SDS011;2990;48.746;9.236;2022-08-16T00:35:13;622.35;;;582.15;;
5929;SDS011;2990;48.746;9.236;2022-08-16T00:37:41;629.13;;;588.08;;
5929;SDS011;2990;48.746;9.236;2022-08-16T00:40:08;636.00;;;594.53;;
5929;SDS011;2990;48.746;9.236;2022-08-16T00:42:35;634.65;;;592.60;;
5929;SDS011;2990;48.746;9.236;2022-08-16T00:45:03;613.72;;;573.63;;
5929;SDS011;2990;48.746;9.236;2022-08-16T00:47:33;626.88;;;585.85;;
5929;SDS011;2990;48.746;9.236;2022-08-16T00:50:00;613.95;;;573.78;;
5929;SDS011;2990;48.746;9.236;2022-08-16T00:52:26;647.53;;;604.38;;
5929;SDS011;2990;48.746;9.236;2022-08-16T00:54:51;662.50;;;618.45;;
5929;SDS011;2990;48.746;9.236;2022-08-16T00:57:17;639.90;;;597.30;;
5929;SDS011;2990;48.746;9.236;2022-08-16T00:59:42;666.83;;;622.22;;
5929;SDS011;2990;48.746;9.236;2022-08-16T01:02:08;654.38;;;611.20;;
5929;SDS011;2990;48.746;9.236;2022-08-16T01:04:35;687.92;;;642.05;;
5929;SDS011;2990;48.746;9.236;2022-08-16T01:07:03;650.22;;;607.60;;
5929;SDS011;2990;48.746;9.236;2022-08-16T01:09:34;676.33;;;630.83;;
5929;SDS011;2990;48.746;9.236;2022-08-16T01:12:02;656.38;;;612.45;;
5929;SDS011;2990;48.746;9.236;2022-08-16T01:14:32;650.00;;;606.63;;
5929;SDS011;2990;48.746;9.236;2022-08-16T01:17:03;692.95;;;646.40;;
5929;SDS011;2990;48.746;9.236;2022-08-16T01:19:30;694.92;;;647.78;;
5929;SDS011;2990;48.746;9.236;2022-08-16T01:22:00;700.35;;;653.38;;
5929;SDS011;2990;48.746;9.236;2022-08-16T01:24:44;696.00;;;649.50;;
5929;SDS011;2990;48.746;9.236;2022-08-16T01:27:14;702.15;;;654.83;;
5929;SDS011;2990;48.746;9.236;2022-08-16T01:29:59;723.53;;;674.70;;
5929;SDS011;2990;48.746;9.236;2022-08-16T01:32:31;719.13;;;670.42;;
5929;SDS011;2990;48.746;9.236;2022-08-16T01:35:00;706.45;;;658.78;;
5929;SDS011;2990;48.746;9.236;2022-08-16T01:37:36;741.35;;;691.47;;
5929;SDS011;2990;48.746;9.236;2022-08-16T01:40:05;747.25;;;696.58;;
5929;SDS011;2990;48.746;9.236;2022-08-16T01:42:31;706.55;;;658.50;;
5929;SDS011;2990;48.746;9.236;2022-08-16T01:44:57;709.30;;;661.08;;
5929;SDS011;2990;48.746;9.236;2022-08-16T01:47:23;731.83;;;682.03;;
5929;SDS011;2990;48.746;9.236;2022-08-16T01:49:49;733.03;;;683.15;;
5929;SDS011;2990;48.746;9.236;2022-08-16T01:52:15;741.20;;;691.40;;
5929;SDS011;2990;48.746;9.236;2022-08-16T01:54:43;787.03;;;733.83;;
5929;SDS011;2990;48.746;9.236;2022-08-16T01:57:09;752.90;;;701.97;;
5929;SDS011;2990;48.746;9.236;2022-08-16T01:59:35;765.15;;;713.42;;
5929;SDS011;2990;48.746;9.236;2022-08-16T02:02:02;770.63;;;718.40;;
5929;SDS011;2990;48.746;9.236;2022-08-16T02:04:29;781.88;;;728.70;;
5929;SDS011;2990;48.746;9.236;2022-08-16T02:06:55;776.00;;;722.88;;
5929;SDS011;2990;48.746;9.236;2022-08-16T02:09:22;806.83;;;751.70;;
5929;SDS011;2990;48.746;9.236;2022-08-16T02:11:49;789.38;;;735.38;;
5929;SDS011;2990;48.746;9.236;2022-08-16T02:14:17;800.72;;;746.08;;
5929;SDS011;2990;48.746;9.236;2022-08-16T02:16:43;792.08;;;737.88;;
5929;SDS011;2990;48.746;9.236;2022-08-16T02:19:12;788.95;;;735.45;;
5929;SDS011;2990;48.746;9.236;2022-08-16T02:21:37;813.20;;;757.05;;
5929;SDS011;2990;48.746;9.236;2022-08-16T02:24:03;812.42;;;756.55;;
5929;SDS011;2990;48.746;9.236;2022-08-16T02:26:29;799.58;;;743.72;;
5929;SDS011;2990;48.746;9.236;2022-08-16T02:28:55;819.80;;;763.60;;
5929;SDS011;2990;48.746;9.236;2022-08-16T02:31:21;838.00;;;780.53;;
5929;SDS011;2990;48.746;9.236;2022-08-16T02:33:47;831.85;;;774.42;;
5929;SDS011;2990;48.746;9.236;2022-08-16T02:36:13;833.53;;;776.10;;
5929;SDS011;2990;48.746;9.236;2022-08-16T02:38:39;827.88;;;771.20;;
5929;SDS011;2990;48.746;9.236;2022-08-16T02:41:05;825.60;;;768.92;;
5929;SDS011;2990;48.746;9.236;2022-08-16T02:43:32;858.47;;;799.25;;
5929;SDS011;2990;48.746;9.236;2022-08-16T02:46:00;867.83;;;806.90;;
5929;SDS011;2990;48.746;9.236;2022-08-16T02:48:26;874.13;;;812.92;;
5929;SDS011;2990;48.746;9.236;2022-08-16T02:50:52;868.67;;;808.00;;
5929;SDS011;2990;48.746;9.236;2022-08-16T02:53:18;889.92;;;827.33;;
5929;SDS011;2990;48.746;9.236;2022-08-16T02:55:44;888.92;;;826.10;;
5929;SDS011;2990;48.746;9.236;2022-08-16T02:58:10;897.97;;;834.03;;
5929;SDS011;2990;48.746;9.236;2022-08-16T03:00:36;911.33;;;845.67;;
5929;SDS011;2990;48.746;9.236;2022-08-16T03:03:03;901.42;;;837.05;;
5929;SDS011;2990;48.746;9.236;2022-08-16T03:05:29;942.50;;;873.78;;
5929;SDS011;2990;48.746;9.236;2022-08-16T03:07:55;958.05;;;888.35;;
5929;SDS011;2990;48.746;9.236;2022-08-16T03:10:21;936.13;;;868.13;;
5929;SDS011;2990;48.746;9.236;2022-08-16T03:12:46;983.15;;;910.80;;
5929;SDS011;2990;48.746;9.236;2022-08-16T03:15:14;978.28;;;905.65;;
5929;SDS011;2990;48.746;9.236;2022-08-16T03:17:41;986.55;;;913.08;;
5929;SDS011;2990;48.746;9.236;2022-08-16T03:20:08;978.35;;;905.75;;
5929;SDS011;2990;48.746;9.236;2022-08-16T03:22:35;973.67;;;901.70;;
5929;SDS011;2990;48.746;9.236;2022-08-16T03:25:03;978.25;;;906.80;;
5929;SDS011;2990;48.746;9.236;2022-08-16T03:27:31;970.22;;;898.70;;
5929;SDS011;2990;48.746;9.236;2022-08-16T03:30:19;982.22;;;909.13;;
5929;SDS011;2990;48.746;9.236;2022-08-16T03:32:50;981.10;;;907.67;;
5929;SDS011;2990;48.746;9.236;2022-08-16T03:35:16;984.53;;;910.75;;
5929;SDS011;2990;48.746;9.236;2022-08-16T03:37:43;991.10;;;917.67;;
5929;SDS011;2990;48.746;9.236;2022-08-16T03:40:11;996.63;;;921.72;;
5929;SDS011;2990;48.746;9.236;2022-08-16T03:42:38;985.58;;;912.45;;
5929;SDS011;2990;48.746;9.236;2022-08-16T03:45:04;985.72;;;911.13;;
5929;SDS011;2990;48.746;9.236;2022-08-16T03:47:30;970.30;;;898.53;;
5929;SDS011;2990;48.746;9.236;2022-08-16T03:49:55;974.85;;;903.53;;
5929;SDS011;2990;48.746;9.236;2022-08-16T03:52:22;966.75;;;894.75;;
5929;SDS011;2990;48.746;9.236;2022-08-16T03:54:48;964.83;;;893.80;;
5929;SDS011;2990;48.746;9.236;2022-08-16T03:57:14;941.67;;;872.97;;
5929;SDS011;2990;48.746;9.236;2022-08-16T03:59:40;975.30;;;903.38;;
5929;SDS011;2990;48.746;9.236;2022-08-16T04:02:06;965.42;;;894.28;;
5929;SDS011;2990;48.746;9.236;2022-08-16T04:04:31;980.63;;;907.88;;
5929;SDS011;2990;48.746;9.236;2022-08-16T04:07:00;998.38;;;924.00;;
5929;SDS011;2990;48.746;9.236;2022-08-16T04:09:27;988.22;;;914.58;;
5929;SDS011;2990;48.746;9.236;2022-08-16T04:11:53;996.17;;;920.72;;
5929;SDS011;2990;48.746;9.236;2022-08-16T04:14:19;1022.95;;;944.15;;
5929;SDS011;2990;48.746;9.236;2022-08-16T04:16:45;1047.88;;;965.72;;
5929;SDS011;2990;48.746;9.236;2022-08-16T04:19:10;1045.82;;;962.80;;
5929;SDS011;2990;48.746;9.236;2022-08-16T04:21:36;1091.40;;;998.88;;
5929;SDS011;2990;48.746;9.236;2022-08-16T04:24:02;1079.50;;;992.97;;
5929;SDS011;2990;48.746;9.236;2022-08-16T04:26:28;1109.82;;;999.90;;
5929;SDS011;2990;48.746;9.236;2022-08-16T04:28:55;1138.10;;;999.90;;
5929;SDS011;2990;48.746;9.236;2022-08-16T04:31:21;1125.90;;;999.90;;
5929;SDS011;2990;48.746;9.236;2022-08-16T04:33:47;1097.72;;;999.90;;
5929;SDS011;2990;48.746;9.236;2022-08-16T04:36:13;1099.82;;;999.90;;
5929;SDS011;2990;48.746;9.236;2022-08-16T04:38:39;1999.90;;;999.90;;
5929;SDS011;2990;48.746;9.236;2022-08-16T04:41:04;1999.90;;;999.90;;
5929;SDS011;2990;48.746;9.236;2022-08-16T04:43:30;1999.90;;;999.90;;
5929;SDS011;2990;48.746;9.236;2022-08-16T04:45:57;1295.35;;;979.83;;
5929;SDS011;2990;48.746;9.236;2022-08-16T04:48:23;1298.50;;;981.22;;
5929;SDS011;2990;48.746;9.236;2022-08-16T04:50:49;1533.47;;;989.42;;
5929;SDS011;2990;48.746;9.236;2022-08-16T04:53:15;1322.97;;;999.90;;
5929;SDS011;2990;48.746;9.236;2022-08-16T04:55:40;1096.57;;;999.90;;
5929;SDS011;2990;48.746;9.236;2022-08-16T04:58:06;1999.90;;;999.90;;
5929;SDS011;2990;48.746;9.236;2022-08-16T05:00:33;1999.90;;;999.90;;
5929;SDS011;2990;48.746;9.236;2022-08-16T05:03:00;1999.90;;;999.90;;
5929;SDS011;2990;48.746;9.236;2022-08-16T05:05:31;1999.90;;;999.90;;
5929;SDS011;2990;48.746;9.236;2022-08-16T05:07:57;1999.90;;;999.90;;
5929;SDS011;2990;48.746;9.236;2022-08-16T05:10:23;1999.90;;;999.90;;
5929;SDS011;2990;48.746;9.236;2022-08-16T05:12:49;1999.90;;;999.90;;
5929;SDS011;2990;48.746;9.236;2022-08-16T05:15:14;1999.90;;;999.90;;
5929;SDS011;2990;48.746;9.236;2022-08-16T05:17:40;1999.90;;;999.90;;
5929;SDS011;2990;48.746;9.236;2022-08-16T05:20:06;1999.90;;;999.90;;
5929;SDS011;2990;48.746;9.236;2022-08-16T05:22:33;1999.90;;;999.90;;
5929;SDS011;2990;48.746;9.236;2022-08-16T05:25:00;1999.90;;;999.90;;
5929;SDS011;2990;48.746;9.236;2022-08-16T05:27:27;1999.90;;;999.90;;
5929;SDS011;2990;48.746;9.236;2022-08-16T05:29:53;1999.90;;;999.90;;
5929;SDS011;2990;48.746;9.236;2022-08-16T05:32:19;1314.55;;;996.78;;
5929;SDS011;2990;48.746;9.236;2022-08-16T05:34:44;1999.90;;;999.90;;
5929;SDS011;2990;48.746;9.236;2022-08-16T05:37:10;1308.13;;;990.28;;
5929;SDS011;2990;48.746;9.236;2022-08-16T05:39:35;1124.70;;;999.90;;
5929;SDS011;2990;48.746;9.236;2022-08-16T05:42:01;1771.15;;;998.08;;
5929;SDS011;2990;48.746;9.236;2022-08-16T05:44:27;1550.13;;;999.90;;
5929;SDS011;2990;48.746;9.236;2022-08-16T05:46:53;1999.90;;;999.90;;
5929;SDS011;2990;48.746;9.236;2022-08-16T05:49:20;1999.90;;;999.90;;
5929;SDS011;2990;48.746;9.236;2022-08-16T05:51:46;1105.05;;;999.90;;
5929;SDS011;2990;48.746;9.236;2022-08-16T05:54:13;1556.82;;;999.90;;
5929;SDS011;2990;48.746;9.236;2022-08-16T05:56:41;1343.13;;;999.90;;
5929;SDS011;2990;48.746;9.236;2022-08-16T05:59:10;1122.38;;;999.90;;
5929;SDS011;2990;48.746;9.236;2022-08-16T06:01:36;1123.65;;;999.90;;
5929;SDS011;2990;48.746;9.236;2022-08-16T06:04:03;1106.07;;;999.90;;
5929;SDS011;2990;48.746;9.236;2022-08-16T06:06:28;1093.95;;;999.13;;
5929;SDS011;2990;48.746;9.236;2022-08-16T06:08:54;1079.40;;;990.92;;
5929;SDS011;2990;48.746;9.236;2022-08-16T06:11:19;1073.50;;;988.83;;
5929;SDS011;2990;48.746;9.236;2022-08-16T06:13:45;1058.97;;;975.80;;
5929;SDS011;2990;48.746;9.236;2022-08-16T06:16:11;1051.40;;;969.42;;
5929;SDS011;2990;48.746;9.236;2022-08-16T06:18:37;1022.60;;;943.28;;
5929;SDS011;2990;48.746;9.236;2022-08-16T06:21:03;1012.83;;;935.42;;
5929;SDS011;2990;48.746;9.236;2022-08-16T06:23:28;1024.43;;;946.00;;
5929;SDS011;2990;48.746;9.236;2022-08-16T06:25:55;1009.33;;;932.22;;
5929;SDS011;2990;48.746;9.236;2022-08-16T06:28:20;1002.08;;;926.83;;
5929;SDS011;2990;48.746;9.236;2022-08-16T06:30:46;972.72;;;900.38;;
5929;SDS011;2990;48.746;9.236;2022-08-16T06:33:12;961.40;;;890.58;;
5929;SDS011;2990;48.746;9.236;2022-08-16T06:35:39;932.17;;;864.35;;
5929;SDS011;2990;48.746;9.236;2022-08-16T06:38:05;954.80;;;885.38;;
5929;SDS011;2990;48.746;9.236;2022-08-16T06:40:31;891.85;;;828.13;;
5929;SDS011;2990;48.746;9.236;2022-08-16T06:42:57;897.42;;;833.80;;
5929;SDS011;2990;48.746;9.236;2022-08-16T06:45:23;858.85;;;799.13;;
5929;SDS011;2990;48.746;9.236;2022-08-16T06:47:49;798.40;;;743.83;;
5929;SDS011;2990;48.746;9.236;2022-08-16T06:50:14;758.80;;;707.47;;
5929;SDS011;2990;48.746;9.236;2022-08-16T06:52:40;743.85;;;693.08;;
5929;SDS011;2990;48.746;9.236;2022-08-16T06:55:08;673.90;;;628.47;;
5929;SDS011;2990;48.746;9.236;2022-08-16T06:57:34;647.05;;;603.65;;
5929;SDS011;2990;48.746;9.236;2022-08-16T07:00:00;549.90;;;515.20;;
5929;SDS011;2990;48.746;9.236;2022-08-16T07:02:26;526.67;;;493.80;;
5929;SDS011;2990;48.746;9.236;2022-08-16T07:04:51;453.40;;;425.58;;
5929;SDS011;2990;48.746;9.236;2022-08-16T07:07:17;424.98;;;399.30;;
5929;SDS011;2990;48.746;9.236;2022-08-16T07:09:44;369.10;;;347.80;;
5929;SDS011;2990;48.746;9.236;2022-08-16T07:12:11;395.65;;;372.33;;
5929;SDS011;2990;48.746;9.236;2022-08-16T07:14:37;314.75;;;296.70;;
5929;SDS011;2990;48.746;9.236;2022-08-16T07:17:03;342.88;;;323.08;;
5929;SDS011;2990;48.746;9.236;2022-08-16T07:19:30;238.85;;;225.93;;
5929;SDS011;2990;48.746;9.236;2022-08-16T07:21:56;275.25;;;260.45;;
5929;SDS011;2990;48.746;9.236;2022-08-16T07:24:22;228.18;;;216.40;;
5929;SDS011;2990;48.746;9.236;2022-08-16T07:26:47;229.02;;;216.43;;
5929;SDS011;2990;48.746;9.236;2022-08-16T07:29:13;220.13;;;208.77;;
5929;SDS011;2990;48.746;9.236;2022-08-16T07:31:38;191.80;;;181.93;;
5929;SDS011;2990;48.746;9.236;2022-08-16T07:34:04;173.98;;;165.30;;
5929;SDS011;2990;48.746;9.236;2022-08-16T07:36:29;139.43;;;132.90;;
5929;SDS011;2990;48.746;9.236;2022-08-16T07:38:55;170.02;;;161.90;;
5929;SDS011;2990;48.746;9.236;2022-08-16T07:41:21;169.55;;;161.63;;
5929;SDS011;2990;48.746;9.236;2022-08-16T07:43:46;170.15;;;162.43;;
5929;SDS011;2990;48.746;9.236;2022-08-16T07:46:12;211.13;;;201.23;;
5929;SDS011;2990;48.746;9.236;2022-08-16T07:48:38;207.23;;;197.50;;
5929;SDS011;2990;48.746;9.236;2022-08-16T07:51:04;213.95;;;203.88;;
5929;SDS011;2990;48.746;9.236;2022-08-16T07:53:30;266.73;;;253.57;;
5929;SDS011;2990;48.746;9.236;2022-08-16T07:55:58;271.58;;;258.02;;
5929;SDS011;2990;48.746;9.236;2022-08-16T07:58:24;277.25;;;263.30;;
5929;SDS011;2990;48.746;9.236;2022-08-16T08:00:50;329.77;;;312.13;;
5929;SDS011;2990;48.746;9.236;2022-08-16T08:03:16;438.58;;;413.15;;
5929;SDS011;2990;48.746;9.236;2022-08-16T08:05:42;483.27;;;453.90;;
5929;SDS011;2990;48.746;9.236;2022-08-16T08:08:08;537.80;;;504.42;;
5929;SDS011;2990;48.746;9.236;2022-08-16T08:10:34;585.28;;;547.17;;
5929;SDS011;2990;48.746;9.236;2022-08-16T08:13:00;636.28;;;593.47;;
5929;SDS011;2990;48.746;9.236;2022-08-16T08:15:25;648.70;;;604.65;;
5929;SDS011;2990;48.746;9.236;2022-08-16T08:17:51;691.20;;;643.63;;
5929;SDS011;2990;48.746;9.236;2022-08-16T08:20:19;695.00;;;647.17;;
5929;SDS011;2990;48.746;9.236;2022-08-16T08:22:47;1999.90;;;999.90;;
5929;SDS011;2990;48.746;9.236;2022-08-16T08:25:14;1999.90;;;999.90;;
5929;SDS011;2990;48.746;9.236;2022-08-16T08:27:40;1999.90;;;999.90;;
5929;SDS011;2990;48.746;9.236;2022-08-16T08:30:07;1999.90;;;999.90;;
5929;SDS011;2990;48.746;9.236;2022-08-16T08:32:34;1999.90;;;999.90;;
5929;SDS011;2990;48.746;9.236;2022-08-16T08:34:59;1999.90;;;999.90;;
5929;SDS011;2990;48.746;9.236;2022-08-16T08:37:26;1999.90;;;999.90;;
5929;SDS011;2990;48.746;9.236;2022-08-16T08:39:52;1999.90;;;999.90;;
5929;SDS011;2990;48.746;9.236;2022-08-16T08:42:18;1999.90;;;999.90;;
5929;SDS011;2990;48.746;9.236;2022-08-16T08:44:43;1999.90;;;999.90;;
5929;SDS011;2990;48.746;9.236;2022-08-16T08:47:09;1999.90;;;999.90;;
5929;SDS011;2990;48.746;9.236;2022-08-16T08:49:35;1999.90;;;999.90;;
5929;SDS011;2990;48.746;9.236;2022-08-16T08:52:02;1999.90;;;999.90;;
5929;SDS011;2990;48.746;9.236;2022-08-16T08:54:29;1999.90;;;999.90;;
5929;SDS011;2990;48.746;9.236;2022-08-16T08:56:55;1999.90;;;999.90;;
5929;SDS011;2990;48.746;9.236;2022-08-16T08:59:21;1999.90;;;999.90;;
5929;SDS011;2990;48.746;9.236;2022-08-16T09:01:46;1999.90;;;999.90;;
5929;SDS011;2990;48.746;9.236;2022-08-16T09:04:14;1999.90;;;999.90;;
5929;SDS011;2990;48.746;9.236;2022-08-16T09:06:39;1999.90;;;999.90;;
5929;SDS011;2990;48.746;9.236;2022-08-16T09:09:06;1999.90;;;999.90;;
5929;SDS011;2990;48.746;9.236;2022-08-16T09:11:36;1999.90;;;999.90;;
5929;SDS011;2990;48.746;9.236;2022-08-16T09:14:02;1999.90;;;999.90;;
5929;SDS011;2990;48.746;9.236;2022-08-16T09:16:28;1999.90;;;999.90;;
5929;SDS011;2990;48.746;9.236;2022-08-16T09:18:54;1999.90;;;999.90;;
5929;SDS011;2990;48.746;9.236;2022-08-16T09:21:20;1999.90;;;999.90;;
5929;SDS011;2990;48.746;9.236;2022-08-16T09:23:46;1999.90;;;999.90;;
5929;SDS011;2990;48.746;9.236;2022-08-16T09:26:12;1999.90;;;999.90;;
5929;SDS011;2990;48.746;9.236;2022-08-16T09:28:40;1999.90;;;999.90;;
5929;SDS011;2990;48.746;9.236;2022-08-16T09:31:07;1999.90;;;999.90;;
5929;SDS011;2990;48.746;9.236;2022-08-16T09:33:33;1999.90;;;999.90;;
5929;SDS011;2990;48.746;9.236;2022-08-16T09:35:59;1999.90;;;999.90;;
5929;SDS011;2990;48.746;9.236;2022-08-16T09:38:25;1999.90;;;999.90;;
5929;SDS011;2990;48.746;9.236;2022-08-16T09:40:51;1999.90;;;999.90;;
5929;SDS011;2990;48.746;9.236;2022-08-16T09:43:18;1999.90;;;999.90;;
5929;SDS011;2990;48.746;9.236;2022-08-16T09:45:44;1999.90;;;999.90;;
5929;SDS011;2990;48.746;9.236;2022-08-16T09:48:11;1999.90;;;999.90;;
5929;SDS011;2990;48.746;9.236;2022-08-16T09:50:38;1999.90;;;999.90;;
5929;SDS011;2990;48.746;9.236;2022-08-16T09:53:16;1999.90;;;999.90;;
5929;SDS011;2990;48.746;9.236;2022-08-16T09:55:47;1999.90;;;999.90;;
5929;SDS011;2990;48.746;9.236;2022-08-16T09:58:20;1999.90;;;999.90;;
5929;SDS011;2990;48.746;9.236;2022-08-16T10:00:47;1999.90;;;999.90;;
5929;SDS011;2990;48.746;9.236;2022-08-16T10:03:17;1999.90;;;999.90;;
5929;SDS011;2990;48.746;9.236;2022-08-16T10:05:43;1999.90;;;999.90;;
5929;SDS011;2990;48.746;9.236;2022-08-16T10:08:09;1999.90;;;999.90;;
5929;SDS011;2990;48.746;9.236;2022-08-16T10:10:36;1999.90;;;999.90;;
5929;SDS011;2990;48.746;9.236;2022-08-16T10:13:05;1999.90;;;999.90;;
5929;SDS011;2990;48.746;9.236;2022-08-16T10:15:38;1999.90;;;999.90;;
5929;SDS011;2990;48.746;9.236;2022-08-16T10:18:06;1999.90;;;999.90;;
5929;SDS011;2990;48.746;9.236;2022-08-16T10:20:38;1999.90;;;999.90;;
5929;SDS011;2990;48.746;9.236;2022-08-16T10:23:06;1999.90;;;999.90;;
5929;SDS011;2990;48.746;9.236;2022-08-16T10:25:35;1999.90;;;999.90;;
5929;SDS011;2990;48.746;9.236;2022-08-16T10:28:04;1999.90;;;999.90;;
5929;SDS011;2990;48.746;9.236;2022-08-16T10:30:30;1999.90;;;999.90;;
5929;SDS011;2990;48.746;9.236;2022-08-16T10:32:56;1999.90;;;999.90;;
5929;SDS011;2990;48.746;9.236;2022-08-16T10:35:22;1999.90;;;999.90;;
5929;SDS011;2990;48.746;9.236;2022-08-16T10:37:47;1999.90;;;999.90;;
5929;SDS011;2990;48.746;9.236;2022-08-16T10:40:14;1999.90;;;999.90;;
5929;SDS011;2990;48.746;9.236;2022-08-16T10:42:39;1999.90;;;999.90;;
5929;SDS011;2990;48.746;9.236;2022-08-16T10:45:05;1999.90;;;999.90;;
5929;SDS011;2990;48.746;9.236;2022-08-16T10:47:31;1999.90;;;999.90;;
5929;SDS011;2990;48.746;9.236;2022-08-16T10:49:56;1999.90;;;999.90;;
5929;SDS011;2990;48.746;9.236;2022-08-16T10:52:23;1999.90;;;999.90;;
5929;SDS011;2990;48.746;9.236;2022-08-16T10:54:49;1999.90;;;999.90;;
5929;SDS011;2990;48.746;9.236;2022-08-16T10:57:14;1999.90;;;999.90;;
5929;SDS011;2990;48.746;9.236;2022-08-16T10:59:40;1999.90;;;999.90;;
5929;SDS011;2990;48.746;9.236;2022-08-16T11:02:09;1999.90;;;999.90;;
5929;SDS011;2990;48.746;9.236;2022-08-16T11:04:36;1999.90;;;999.90;;
5929;SDS011;2990;48.746;9.236;2022-08-16T11:07:02;1999.90;;;999.90;;
5929;SDS011;2990;48.746;9.236;2022-08-16T11:09:29;1999.90;;;999.90;;
5929;SDS011;2990;48.746;9.236;2022-08-16T11:11:54;1999.90;;;999.90;;
5929;SDS011;2990;48.746;9.236;2022-08-16T11:14:20;1059.55;;;968.08;;
5929;SDS011;2990;48.746;9.236;2022-08-16T11:16:48;1055.30;;;964.50;;
5929;SDS011;2990;48.746;9.236;2022-08-16T11:19:14;999.50;;;918.33;;
5929;SDS011;2990;48.746;9.236;2022-08-16T11:21:41;1008.42;;;924.33;;
5929;SDS011;2990;48.746;9.236;2022-08-16T11:24:07;1048.05;;;958.95;;
5929;SDS011;2990;48.746;9.236;2022-08-16T11:26:33;1039.22;;;952.35;;
5929;SDS011;2990;48.746;9.236;2022-08-16T11:28:58;1055.15;;;966.63;;
5929;SDS011;2990;48.746;9.236;2022-08-16T11:31:24;1041.20;;;955.10;;
5929;SDS011;2990;48.746;9.236;2022-08-16T11:33:50;1018.58;;;935.00;;
5929;SDS011;2990;48.746;9.236;2022-08-16T11:36:16;927.50;;;856.92;;
5929;SDS011;2990;48.746;9.236;2022-08-16T11:38:43;848.13;;;786.85;;
5929;SDS011;2990;48.746;9.236;2022-08-16T11:41:10;736.80;;;685.80;;
5929;SDS011;2990;48.746;9.236;2022-08-16T11:43:36;707.63;;;658.83;;
5929;SDS011;2990;48.746;9.236;2022-08-16T11:46:04;611.58;;;569.65;;
5929;SDS011;2990;48.746;9.236;2022-08-16T11:48:32;805.72;;;747.63;;
5929;SDS011;2990;48.746;9.236;2022-08-16T11:50:58;588.28;;;547.95;;
5929;SDS011;2990;48.746;9.236;2022-08-16T11:53:25;806.65;;;747.47;;
5929;SDS011;2990;48.746;9.236;2022-08-16T11:55:52;840.55;;;777.70;;
5929;SDS011;2990;48.746;9.236;2022-08-16T11:58:19;861.45;;;797.50;;
5929;SDS011;2990;48.746;9.236;2022-08-16T12:00:45;895.53;;;827.92;;
5929;SDS011;2990;48.746;9.236;2022-08-16T12:03:12;915.03;;;845.00;;
5929;SDS011;2990;48.746;9.236;2022-08-16T12:05:39;1073.68;;;978.92;;
5929;SDS011;2990;48.746;9.236;2022-08-16T12:08:07;931.22;;;859.13;;
5929;SDS011;2990;48.746;9.236;2022-08-16T12:10:34;1071.03;;;977.92;;
5929;SDS011;2990;48.746;9.236;2022-08-16T12:13:00;1105.35;;;999.45;;
5929;SDS011;2990;48.746;9.236;2022-08-16T12:15:26;1111.18;;;999.90;;
5929;SDS011;2990;48.746;9.236;2022-08-16T12:17:54;1113.35;;;999.90;;
5929;SDS011;2990;48.746;9.236;2022-08-16T12:20:22;1069.00;;;977.75;;
5929;SDS011;2990;48.746;9.236;2022-08-16T12:22:50;1086.90;;;991.83;;
5929;SDS011;2990;48.746;9.236;2022-08-16T12:25:19;1104.30;;;999.08;;
5929;SDS011;2990;48.746;9.236;2022-08-16T12:27:47;1120.43;;;999.90;;
5929;SDS011;2990;48.746;9.236;2022-08-16T12:30:15;1124.15;;;999.90;;
5929;SDS011;2990;48.746;9.236;2022-08-16T12:32:43;1135.75;;;999.90;;
5929;SDS011;2990;48.746;9.236;2022-08-16T12:35:11;1111.95;;;999.90;;
5929;SDS011;2990;48.746;9.236;2022-08-16T12:37:40;1141.50;;;999.90;;
5929;SDS011;2990;48.746;9.236;2022-08-16T12:40:08;1136.38;;;999.90;;
5929;SDS011;2990;48.746;9.236;2022-08-16T12:42:38;1097.90;;;997.72;;
5929;SDS011;2990;48.746;9.236;2022-08-16T12:45:04;1113.60;;;999.90;;
5929;SDS011;2990;48.746;9.236;2022-08-16T12:47:31;1131.20;;;999.90;;
5929;SDS011;2990;48.746;9.236;2022-08-16T12:50:16;1125.82;;;999.90;;
5929;SDS011;2990;48.746;9.236;2022-08-16T12:52:41;1094.80;;;997.80;;
5929;SDS011;2990;48.746;9.236;2022-08-16T12:55:07;1115.25;;;999.90;;
5929;SDS011;2990;48.746;9.236;2022-08-16T12:57:35;1138.68;;;999.90;;
5929;SDS011;2990;48.746;9.236;2022-08-16T13:00:01;1134.82;;;999.90;;
5929;SDS011;2990;48.746;9.236;2022-08-16T13:02:31;1135.70;;;999.90;;
5929;SDS011;2990;48.746;9.236;2022-08-16T13:04:57;1125.68;;;999.90;;
5929;SDS011;2990;48.746;9.236;2022-08-16T13:07:22;1112.88;;;999.90;;
5929;SDS011;2990;48.746;9.236;2022-08-16T13:09:48;1132.95;;;999.90;;
5929;SDS011;2990;48.746;9.236;2022-08-16T13:12:22;1104.18;;;999.63;;
5929;SDS011;2990;48.746;9.236;2022-08-16T13:14:49;1040.20;;;954.72;;
5929;SDS011;2990;48.746;9.236;2022-08-16T13:17:19;1064.47;;;974.75;;
5929;SDS011;2990;48.746;9.236;2022-08-16T13:19:49;992.47;;;915.17;;
5929;SDS011;2990;48.746;9.236;2022-08-16T13:22:16;1055.93;;;967.15;;
5929;SDS011;2990;48.746;9.236;2022-08-16T13:24:42;1089.63;;;995.65;;
5929;SDS011;2990;48.746;9.236;2022-08-16T13:27:08;1022.85;;;940.55;;
5929;SDS011;2990;48.746;9.236;2022-08-16T13:29:33;1067.90;;;976.60;;
5929;SDS011;2990;48.746;9.236;2022-08-16T13:31:59;1009.20;;;927.67;;
5929;SDS011;2990;48.746;9.236;2022-08-16T13:34:25;1053.20;;;964.42;;
5929;SDS011;2990;48.746;9.236;2022-08-16T13:36:51;944.63;;;873.33;;
5929;SDS011;2990;48.746;9.236;2022-08-16T13:39:16;920.47;;;852.80;;
5929;SDS011;2990;48.746;9.236;2022-08-16T13:41:42;936.10;;;867.20;;
5929;SDS011;2990;48.746;9.236;2022-08-16T13:44:08;1034.70;;;951.35;;
5929;SDS011;2990;48.746;9.236;2022-08-16T13:46:34;1003.08;;;923.50;;
5929;SDS011;2990;48.746;9.236;2022-08-16T13:49:00;973.63;;;900.38;;
5929;SDS011;2990;48.746;9.236;2022-08-16T13:51:26;916.85;;;850.10;;
5929;SDS011;2990;48.746;9.236;2022-08-16T13:53:55;921.63;;;852.50;;
5929;SDS011;2990;48.746;9.236;2022-08-16T13:56:22;1001.78;;;922.47;;
5929;SDS011;2990;48.746;9.236;2022-08-16T13:58:49;1036.63;;;950.92;;
5929;SDS011;2990;48.746;9.236;2022-08-16T14:01:16;1096.68;;;998.85;;
5929;SDS011;2990;48.746;9.236;2022-08-16T14:03:42;1136.75;;;999.90;;
5929;SDS011;2990;48.746;9.236;2022-08-16T14:06:08;1110.80;;;999.90;;
5929;SDS011;2990;48.746;9.236;2022-08-16T14:08:35;1133.00;;;999.90;;
5929;SDS011;2990;48.746;9.236;2022-08-16T14:11:01;1065.97;;;976.92;;
5929;SDS011;2990;48.746;9.236;2022-08-16T14:13:29;1092.28;;;997.03;;